Clark Todd — WDH6420 — position and weather

sailwx.info

Track history (hours):
 
Tides and Currents Weather Stations Pressure Air Temp Water Temp Dewpoint Dewpoint Depression Visibility Wind Speed Wind Dir Waves Ship Positions

Clark Todd

Owner: The Barge Investment Group Ten, LLC, Harahan, LA. More information available from US FCC via Universal Licensing System and Coast Guard Vessel Documentation Center.

Last reported at 2017-Dec-11 21:29 UTC. Time now 2017-Dec-15 08:01 UTC.
Position N 29°50' W 091°59'.

Length 25 m; draft 2.7 m.

Type: Towing. MMSI: 367637760.

Date/timePositionNaut miles runAvg speedWind from/ knotsBaromVisibWave heightAir tempDewpointWater temp
2017-Dec-11 21:29N 29°50' W 091°59'2 4.6
2017-Dec-11 21:00N 29°49' W 092°01'2 3.5
2017-Dec-11 20:30N 29°49' W 092°03'2 4.8
2017-Dec-11 20:00N 29°48' W 092°06'2 5.0
2017-Dec-11 19:30N 29°47' W 092°09'2 4.8
2017-Dec-11 19:00N 29°47' W 092°11'2 4.5
2017-Dec-11 18:30N 29°48' W 092°14'3 5.3
2017-Dec-11 18:00N 29°49' W 092°16'2 4.8
2017-Dec-11 17:30N 29°50' W 092°18'2 4.9
2017-Dec-11 17:00N 29°51' W 092°21'2 2.8
2017-Dec-11 16:23N 29°52' W 092°23'2 4.0
2017-Dec-11 15:58N 29°53' W 092°24'11 4.9
2017-Dec-11 13:48N 29°55' W 092°36'2 5.0
2017-Dec-11 13:28N 29°55' W 092°38'7 4.4
2017-Dec-11 12:00N 29°58' W 092°45'4 4.6
2017-Dec-11 11:10N 29°58' W 092°49'1 4.6
2017-Dec-11 11:00N 29°58' W 092°50'2 4.5
2017-Dec-11 10:29N 29°57' W 092°53'2 4.3
2017-Dec-11 09:59N 29°56' W 092°55'2 4.3
2017-Dec-11 09:30N 29°56' W 092°57'2 4.4
2017-Dec-11 09:00N 29°56' W 092°60'2 4.3
2017-Dec-11 08:30N 29°56' W 093°02'2 4.1
2017-Dec-11 08:00N 29°56' W 093°05'2 3.2
2017-Dec-11 07:30N 29°56' W 093°07'2 4.2
2017-Dec-11 07:00N 29°56' W 093°09'2 3.0
2017-Dec-11 06:30N 29°57' W 093°10'2 4.3
2017-Dec-11 06:00N 29°59' W 093°12'2 4.1
2017-Dec-11 05:30N 30°00' W 093°14'2 3.1
2017-Dec-11 05:00N 30°02' W 093°14'2 3.2
2017-Dec-11 04:30N 30°03' W 093°16'1 3.0
2017-Dec-11 04:00N 30°04' W 093°16'2 3.4
2017-Dec-11 03:30N 30°05' W 093°17'0 0.8
2017-Dec-11 03:00N 30°05' W 093°18'1 1.7
2017-Dec-11 02:30N 30°06' W 093°18'2 4.6
2017-Dec-11 02:00N 30°05' W 093°20'2 3.6
2017-Dec-11 01:30N 30°04' W 093°22'2 5.0
2017-Dec-11 01:00N 30°04' W 093°25'2 5.0
2017-Dec-11 00:30N 30°04' W 093°28'3 5.1
2017-Dec-11 00:00N 30°04' W 093°31'3 5.0
2017-Dec-10 23:30N 30°04' W 093°34'2 4.9
2017-Dec-10 23:00N 30°04' W 093°37'3 5.0
2017-Dec-10 22:30N 30°04' W 093°39'3 5.2
2017-Dec-10 22:00N 30°03' W 093°43'65 4.5
2017-Dec-10 07:30N 29°26' W 094°43'2 4.7
2017-Dec-10 07:00N 29°24' W 094°45'9 4.3
2017-Dec-10 05:01N 29°30' W 094°52'0 6.7
2017-Dec-10 05:00N 29°30' W 094°52'3 5.1
2017-Dec-10 04:23N 29°33' W 094°54'3 7.0
2017-Dec-10 04:00N 29°35' W 094°56'3 6.8
2017-Dec-10 03:30N 29°38' W 094°58'4 7.2
2017-Dec-10 03:00N 29°41' W 094°59'3 5.7
2017-Dec-10 02:30N 29°43' W 095°01'4 6.4
2017-Dec-10 01:54N 29°46' W 095°05'2 3.5
2017-Dec-10 01:21N 29°44' W 095°06'2 5.9
2017-Dec-10 01:00N 29°44' W 095°09'3 5.2
2017-Dec-10 00:30N 29°45' W 095°12'2 3.5
2017-Dec-10 00:00N 29°44' W 095°13'0 0.1
2017-Dec-09 23:30N 29°44' W 095°13'0 0.2
2017-Dec-09 22:59N 29°44' W 095°13'0 0.0
2017-Dec-09 22:30N 29°44' W 095°13'0 0.0
2017-Dec-09 22:00N 29°44' W 095°13'0 0.0
2017-Dec-09 21:29N 29°44' W 095°13'0 0.0
2017-Dec-09 21:00N 29°44' W 095°13'0 0.0
2017-Dec-09 20:29N 29°44' W 095°13'0 0.0
2017-Dec-09 12:22N 29°44' W 095°13'0 0.0
2017-Dec-09 12:00N 29°44' W 095°13'0 0.0
2017-Dec-09 11:30N 29°44' W 095°13'0 0.0
2017-Dec-09 11:00N 29°44' W 095°13'0 0.0
2017-Dec-09 10:29N 29°44' W 095°13'0 0.0
2017-Dec-09 10:00N 29°44' W 095°13'0 0.0
2017-Dec-09 09:30N 29°44' W 095°13'0 0.0
2017-Dec-09 09:01N 29°44' W 095°13'0 0.0
2017-Dec-09 08:30N 29°44' W 095°13'0 0.0
2017-Dec-09 08:00N 29°44' W 095°13'0 0.0
2017-Dec-09 07:30N 29°44' W 095°13'0 0.0
2017-Dec-09 07:00N 29°44' W 095°13'0 0.0
2017-Dec-09 06:31N 29°44' W 095°13'0 0.0
2017-Dec-09 06:00N 29°44' W 095°13'0 0.0
2017-Dec-09 05:31N 29°44' W 095°13'0 0.0
2017-Dec-09 04:59N 29°44' W 095°13'0 0.0
2017-Dec-09 04:30N 29°44' W 095°13'0 0.0
2017-Dec-09 04:00N 29°44' W 095°13'0 0.0
2017-Dec-09 03:29N 29°44' W 095°13'0 0.0
2017-Dec-09 00:55N 29°44' W 095°13'0 0.0
2017-Dec-09 00:25N 29°44' W 095°13'0 0.2
2017-Dec-08 23:59N 29°44' W 095°13'0 0.0
2017-Dec-08 23:01N 29°44' W 095°13'0 0.1
2017-Dec-08 22:29N 29°44' W 095°13'0 0.0
2017-Dec-08 21:59N 29°44' W 095°13'0 0.2
2017-Dec-08 21:30N 29°44' W 095°13'3 6.3
2017-Dec-08 20:59N 29°45' W 095°10'2 5.2
2017-Dec-08 20:30N 29°44' W 095°07'3 7.0
2017-Dec-08 20:00N 29°47' W 095°04'0 0.3
2017-Dec-08 18:17N 29°47' W 095°05'0 0.7
2017-Dec-08 18:00N 29°47' W 095°05'0 0.0
2017-Dec-08 17:29N 29°47' W 095°05'0 0.3
2017-Dec-08 16:55N 29°47' W 095°05'0 0.1
2017-Dec-08 16:06N 29°47' W 095°05'0 0.5
2017-Dec-08 16:01N 29°47' W 095°05'0 0.0
2017-Dec-08 13:17N 29°47' W 095°05'0 0.1
2017-Dec-08 12:56N 29°47' W 095°05'0 0.2
2017-Dec-08 12:11N 29°47' W 095°05'0 0.0
2017-Dec-08 03:25N 29°47' W 095°05'0 0.1
2017-Dec-08 02:56N 29°47' W 095°05'1 0.0
2017-Dec-07 04:17N 29°46' W 095°05'0 1.2
2017-Dec-07 03:58N 29°46' W 095°05'  
2017-Dec-04 10:31N 29°46' W 095°07'0 0.0
2017-Dec-04 10:00N 29°46' W 095°07'0 0.0
2017-Dec-04 09:30N 29°46' W 095°07'0 0.0
2017-Dec-04 09:00N 29°46' W 095°07'0 0.0
2017-Dec-04 08:26N 29°46' W 095°07'0 0.0
2017-Dec-04 07:58N 29°46' W 095°07'2 3.8
2017-Dec-04 07:27N 29°44' W 095°08'0 0.5
2017-Dec-04 06:59N 29°44' W 095°08'2 4.2
2017-Dec-04 06:27N 29°45' W 095°06'1 2.4
2017-Dec-04 06:00N 29°46' W 095°07'0 0.2
2017-Dec-04 04:34N 29°46' W 095°07'0 2.7
2017-Dec-04 04:28N 29°46' W 095°07'0 0.1
2017-Dec-04 01:09N 29°46' W 095°07'0 0.0
2017-Dec-04 00:56N 29°46' W 095°07'0 0.0
2017-Dec-04 00:30N 29°46' W 095°07'0 0.0
2017-Dec-03 23:58N 29°46' W 095°07'0 0.1
2017-Dec-03 23:18N 29°46' W 095°07'0 0.2
2017-Dec-03 22:55N 29°46' W 095°07'0 0.0
2017-Dec-03 22:04N 29°46' W 095°07'0 0.0
2017-Dec-03 21:48N 29°46' W 095°07'0 0.2
2017-Dec-03 20:37N 29°46' W 095°07'0 1.8
2017-Dec-03 20:24N 29°46' W 095°06'1 1.2
2017-Dec-03 19:48N 29°45' W 095°06'0 0.1
2017-Dec-03 19:11N 29°45' W 095°06'1 2.1
2017-Dec-03 18:41N 29°46' W 095°07'0 1.5
2017-Dec-03 18:27N 29°46' W 095°07'0 0.3
2017-Dec-03 18:00N 29°46' W 095°07'0 0.0
2017-Dec-03 17:27N 29°46' W 095°07'1 0.5
2017-Dec-03 16:15N 29°46' W 095°07'0 0.0
2017-Dec-03 15:57N 29°46' W 095°07'0 0.0
2017-Dec-03 15:27N 29°46' W 095°07'0 0.0
2017-Dec-03 15:00N 29°46' W 095°07'0 0.0
2017-Dec-03 14:23N 29°46' W 095°07'0 0.0
2017-Dec-03 11:57N 29°46' W 095°07'0 0.0
2017-Dec-03 10:35N 29°46' W 095°07'0 0.0
2017-Dec-03 10:25N 29°46' W 095°07'0 0.0
2017-Dec-03 09:08N 29°46' W 095°07'0 0.1
2017-Dec-03 08:45N 29°46' W 095°07'1 2.0
2017-Dec-03 08:20N 29°45' W 095°06'1 3.7
2017-Dec-03 08:01N 29°46' W 095°05'1 1.2
2017-Dec-03 07:03N 29°47' W 095°04'0 0.6
2017-Dec-03 07:00N 29°47' W 095°04'0 0.0
2017-Dec-03 05:17N 29°47' W 095°04'0 0.0
2017-Dec-03 04:27N 29°47' W 095°04'0 0.0
2017-Dec-03 04:00N 29°47' W 095°04'0 0.0
2017-Dec-02 06:44N 29°47' W 095°04'0 0.0
2017-Dec-02 06:05N 29°47' W 095°04'  
Track history (hours):
 
Tides and Currents Weather Stations Pressure Air Temp Water Temp Dewpoint Dewpoint Depression Visibility Wind Speed Wind Dir Waves Ship Positions

Clark Todd

Owner: The Barge Investment Group Ten, LLC, Harahan, LA. More information available from US FCC via Universal Licensing System and Coast Guard Vessel Documentation Center.

Last reported at 2017-Dec-11 21:29 UTC. Time now 2017-Dec-15 08:01 UTC.
Position N 29°50' W 091°59'.

Length 25 m; draft 2.7 m.

Type: Towing. MMSI: 367637760.

Date/timePositionNaut miles runAvg speedWind from/ knotsBaromVisibWave heightAir tempDewpointWater temp
2017-Dec-11 21:29N 29°50' W 091°59'2 4.6
2017-Dec-11 21:00N 29°49' W 092°01'2 3.5
2017-Dec-11 20:30N 29°49' W 092°03'2 4.8
2017-Dec-11 20:00N 29°48' W 092°06'2 5.0
2017-Dec-11 19:30N 29°47' W 092°09'2 4.8
2017-Dec-11 19:00N 29°47' W 092°11'2 4.5
2017-Dec-11 18:30N 29°48' W 092°14'3 5.3
2017-Dec-11 18:00N 29°49' W 092°16'2 4.8
2017-Dec-11 17:30N 29°50' W 092°18'2 4.9
2017-Dec-11 17:00N 29°51' W 092°21'2 2.8
2017-Dec-11 16:23N 29°52' W 092°23'2 4.0
2017-Dec-11 15:58N 29°53' W 092°24'11 4.9
2017-Dec-11 13:48N 29°55' W 092°36'2 5.0
2017-Dec-11 13:28N 29°55' W 092°38'7 4.4
2017-Dec-11 12:00N 29°58' W 092°45'4 4.6
2017-Dec-11 11:10N 29°58' W 092°49'1 4.6
2017-Dec-11 11:00N 29°58' W 092°50'2 4.5
2017-Dec-11 10:29N 29°57' W 092°53'2 4.3
2017-Dec-11 09:59N 29°56' W 092°55'2 4.3
2017-Dec-11 09:30N 29°56' W 092°57'2 4.4
2017-Dec-11 09:00N 29°56' W 092°60'2 4.3
2017-Dec-11 08:30N 29°56' W 093°02'2 4.1
2017-Dec-11 08:00N 29°56' W 093°05'2 3.2
2017-Dec-11 07:30N 29°56' W 093°07'2 4.2
2017-Dec-11 07:00N 29°56' W 093°09'2 3.0
2017-Dec-11 06:30N 29°57' W 093°10'2 4.3
2017-Dec-11 06:00N 29°59' W 093°12'2 4.1
2017-Dec-11 05:30N 30°00' W 093°14'2 3.1
2017-Dec-11 05:00N 30°02' W 093°14'2 3.2
2017-Dec-11 04:30N 30°03' W 093°16'1 3.0
2017-Dec-11 04:00N 30°04' W 093°16'2 3.4
2017-Dec-11 03:30N 30°05' W 093°17'0 0.8
2017-Dec-11 03:00N 30°05' W 093°18'1 1.7
2017-Dec-11 02:30N 30°06' W 093°18'2 4.6
2017-Dec-11 02:00N 30°05' W 093°20'2 3.6
2017-Dec-11 01:30N 30°04' W 093°22'2 5.0
2017-Dec-11 01:00N 30°04' W 093°25'2 5.0
2017-Dec-11 00:30N 30°04' W 093°28'3 5.1
2017-Dec-11 00:00N 30°04' W 093°31'3 5.0
2017-Dec-10 23:30N 30°04' W 093°34'2 4.9
2017-Dec-10 23:00N 30°04' W 093°37'3 5.0
2017-Dec-10 22:30N 30°04' W 093°39'3 5.2
2017-Dec-10 22:00N 30°03' W 093°43'65 4.5
2017-Dec-10 07:30N 29°26' W 094°43'2 4.7
2017-Dec-10 07:00N 29°24' W 094°45'9 4.3
2017-Dec-10 05:01N 29°30' W 094°52'0 6.7
2017-Dec-10 05:00N 29°30' W 094°52'3 5.1
2017-Dec-10 04:23N 29°33' W 094°54'3 7.0
2017-Dec-10 04:00N 29°35' W 094°56'3 6.8
2017-Dec-10 03:30N 29°38' W 094°58'4 7.2
2017-Dec-10 03:00N 29°41' W 094°59'3 5.7
2017-Dec-10 02:30N 29°43' W 095°01'4 6.4
2017-Dec-10 01:54N 29°46' W 095°05'2 3.5
2017-Dec-10 01:21N 29°44' W 095°06'2 5.9
2017-Dec-10 01:00N 29°44' W 095°09'3 5.2
2017-Dec-10 00:30N 29°45' W 095°12'2 3.5
2017-Dec-10 00:00N 29°44' W 095°13'0 0.1
2017-Dec-09 23:30N 29°44' W 095°13'0 0.2
2017-Dec-09 22:59N 29°44' W 095°13'0 0.0
2017-Dec-09 22:30N 29°44' W 095°13'0 0.0
2017-Dec-09 22:00N 29°44' W 095°13'0 0.0
2017-Dec-09 21:29N 29°44' W 095°13'0 0.0
2017-Dec-09 21:00N 29°44' W 095°13'0 0.0
2017-Dec-09 20:29N 29°44' W 095°13'0 0.0
2017-Dec-09 12:22N 29°44' W 095°13'0 0.0
2017-Dec-09 12:00N 29°44' W 095°13'0 0.0
2017-Dec-09 11:30N 29°44' W 095°13'0 0.0
2017-Dec-09 11:00N 29°44' W 095°13'0 0.0
2017-Dec-09 10:29N 29°44' W 095°13'0 0.0
2017-Dec-09 10:00N 29°44' W 095°13'0 0.0
2017-Dec-09 09:30N 29°44' W 095°13'0 0.0
2017-Dec-09 09:01N 29°44' W 095°13'0 0.0
2017-Dec-09 08:30N 29°44' W 095°13'0 0.0
2017-Dec-09 08:00N 29°44' W 095°13'0 0.0
2017-Dec-09 07:30N 29°44' W 095°13'0 0.0
2017-Dec-09 07:00N 29°44' W 095°13'0 0.0
2017-Dec-09 06:31N 29°44' W 095°13'0 0.0
2017-Dec-09 06:00N 29°44' W 095°13'0 0.0
2017-Dec-09 05:31N 29°44' W 095°13'0 0.0
2017-Dec-09 04:59N 29°44' W 095°13'0 0.0
2017-Dec-09 04:30N 29°44' W 095°13'0 0.0
2017-Dec-09 04:00N 29°44' W 095°13'0 0.0
2017-Dec-09 03:29N 29°44' W 095°13'0 0.0
2017-Dec-09 00:55N 29°44' W 095°13'0 0.0
2017-Dec-09 00:25N 29°44' W 095°13'0 0.2
2017-Dec-08 23:59N 29°44' W 095°13'0 0.0
2017-Dec-08 23:01N 29°44' W 095°13'0 0.1
2017-Dec-08 22:29N 29°44' W 095°13'0 0.0
2017-Dec-08 21:59N 29°44' W 095°13'0 0.2
2017-Dec-08 21:30N 29°44' W 095°13'3 6.3
2017-Dec-08 20:59N 29°45' W 095°10'2 5.2
2017-Dec-08 20:30N 29°44' W 095°07'3 7.0
2017-Dec-08 20:00N 29°47' W 095°04'0 0.3
2017-Dec-08 18:17N 29°47' W 095°05'0 0.7
2017-Dec-08 18:00N 29°47' W 095°05'0 0.0
2017-Dec-08 17:29N 29°47' W 095°05'0 0.3
2017-Dec-08 16:55N 29°47' W 095°05'0 0.1
2017-Dec-08 16:06N 29°47' W 095°05'0 0.5
2017-Dec-08 16:01N 29°47' W 095°05'0 0.0
2017-Dec-08 13:17N 29°47' W 095°05'0 0.1
2017-Dec-08 12:56N 29°47' W 095°05'0 0.2
2017-Dec-08 12:11N 29°47' W 095°05'0 0.0
2017-Dec-08 03:25N 29°47' W 095°05'0 0.1
2017-Dec-08 02:56N 29°47' W 095°05'1 0.0
2017-Dec-07 04:17N 29°46' W 095°05'0 1.2
2017-Dec-07 03:58N 29°46' W 095°05'  
2017-Dec-04 10:31N 29°46' W 095°07'0 0.0
2017-Dec-04 10:00N 29°46' W 095°07'0 0.0
2017-Dec-04 09:30N 29°46' W 095°07'0 0.0
2017-Dec-04 09:00N 29°46' W 095°07'0 0.0
2017-Dec-04 08:26N 29°46' W 095°07'0 0.0
2017-Dec-04 07:58N 29°46' W 095°07'2 3.8
2017-Dec-04 07:27N 29°44' W 095°08'0 0.5
2017-Dec-04 06:59N 29°44' W 095°08'2 4.2
2017-Dec-04 06:27N 29°45' W 095°06'1 2.4
2017-Dec-04 06:00N 29°46' W 095°07'0 0.2
2017-Dec-04 04:34N 29°46' W 095°07'0 2.7
2017-Dec-04 04:28N 29°46' W 095°07'0 0.1
2017-Dec-04 01:09N 29°46' W 095°07'0 0.0
2017-Dec-04 00:56N 29°46' W 095°07'0 0.0
2017-Dec-04 00:30N 29°46' W 095°07'0 0.0
2017-Dec-03 23:58N 29°46' W 095°07'0 0.1
2017-Dec-03 23:18N 29°46' W 095°07'0 0.2
2017-Dec-03 22:55N 29°46' W 095°07'0 0.0
2017-Dec-03 22:04N 29°46' W 095°07'0 0.0
2017-Dec-03 21:48N 29°46' W 095°07'0 0.2
2017-Dec-03 20:37N 29°46' W 095°07'0 1.8
2017-Dec-03 20:24N 29°46' W 095°06'1 1.2
2017-Dec-03 19:48N 29°45' W 095°06'0 0.1
2017-Dec-03 19:11N 29°45' W 095°06'1 2.1
2017-Dec-03 18:41N 29°46' W 095°07'0 1.5
2017-Dec-03 18:27N 29°46' W 095°07'0 0.3
2017-Dec-03 18:00N 29°46' W 095°07'0 0.0
2017-Dec-03 17:27N 29°46' W 095°07'1 0.5
2017-Dec-03 16:15N 29°46' W 095°07'0 0.0
2017-Dec-03 15:57N 29°46' W 095°07'0 0.0
2017-Dec-03 15:27N 29°46' W 095°07'0 0.0
2017-Dec-03 15:00N 29°46' W 095°07'0 0.0
2017-Dec-03 14:23N 29°46' W 095°07'0 0.0
2017-Dec-03 11:57N 29°46' W 095°07'0 0.0
2017-Dec-03 10:35N 29°46' W 095°07'0 0.0
2017-Dec-03 10:25N 29°46' W 095°07'0 0.0
2017-Dec-03 09:08N 29°46' W 095°07'0 0.1
2017-Dec-03 08:45N 29°46' W 095°07'1 2.0
2017-Dec-03 08:20N 29°45' W 095°06'1 3.7
2017-Dec-03 08:01N 29°46' W 095°05'1 1.2
2017-Dec-03 07:03N 29°47' W 095°04'0 0.6
2017-Dec-03 07:00N 29°47' W 095°04'0 0.0
2017-Dec-03 05:17N 29°47' W 095°04'0 0.0
2017-Dec-03 04:27N 29°47' W 095°04'0 0.0
2017-Dec-03 04:00N 29°47' W 095°04'0 0.0
2017-Dec-02 06:44N 29°47' W 095°04'0 0.0
2017-Dec-02 06:05N 29°47' W 095°04'  

Dump ship's entire track history